Hauptseite
METAR-TAF:

METAR-TAF

Flughäfen :

Flughafen Saarbrücken

Saarbrücken, Deutschland

Breite: 49-13N, Länge: 007-07E, Höhe: 322 m

Beobachtung

Neuester Wetterbericht von vor 35 Minuten, um 02:50 UTC
Wind 3 kt aus Nordost, variierte zwischen Nord und Ost
Temperatur 0°C
Luftfeuchtigkeit 93%
Luftdruck 1010 hPa
Sichtweite 10 km oder mehr
keine Wolken unter 1500 m und keine Kumulonimbus oder Gewitterwolken

METAR: EDDR 210250Z 05003KT 010V090 CAVOK 00/M01 Q1010

Zeit: 04:25 (03:25 UTC)

Prognose

Neuester Wetterbericht von vor 4 Stunden und 25 Minuten, um 23:00 UTC
Gültige Prognose vom 21 um 00 UTC bis 21 um 24 UTC
Wind 8 kt aus Ost/Nordost
Sichtweite 10 km oder mehr
Aufgelockert bewölkt in der Höhe von 2000 ft
Zeitweise
vom 21 um 20 UTC bis 21 um 24 UTC
Durchbrochene Bewölkung in der Höhe von 1400 ft

TAF: EDDR 202300Z 2100/2124 06008KT 9999 SCT020 TEMPO 2120/2124 BKN014

Wetterbeobachtungen und Prognosen von mehr als 4000 Flughäfen (METAR und TAF Bericht).

Die verfügbaren Stationen werden durch gelbe und rote Markierungen auf der Karte dargestellt.

Führen Sie die Maus auf sie, um den Namen der Station zu sehen.

Darauf klicken, um die Beobachtung von Wetterbeobachtungen und Prognosen zu sehen.

Um die Karte zu ändern : klicken Sie auf den grünen Tasten mit einem schwarzen Kreuz Zum Vergrößern, auf den grünen Button mit einem Gedankenstrich zu verkleinern, oder auf die grünen Pfeile für benachbarte Karten.


METAR-TAF: